sensor_id;sensor_type;location;lat;lon;timestamp;temperature;humidity
29577;DHT22;16509;53.862;10.672;2023-11-21T00:00:55;6.90;99.90
29577;DHT22;16509;53.862;10.672;2023-11-21T00:03:20;6.90;99.90
29577;DHT22;16509;53.862;10.672;2023-11-21T00:05:48;6.90;99.90
29577;DHT22;16509;53.862;10.672;2023-11-21T00:08:14;6.90;99.90
29577;DHT22;16509;53.862;10.672;2023-11-21T00:10:39;6.90;99.90
29577;DHT22;16509;53.862;10.672;2023-11-21T00:13:05;6.90;99.90
29577;DHT22;16509;53.862;10.672;2023-11-21T00:15:30;6.90;99.90
29577;DHT22;16509;53.862;10.672;2023-11-21T00:17:56;6.80;99.90
29577;DHT22;16509;53.862;10.672;2023-11-21T00:20:21;6.80;99.90
29577;DHT22;16509;53.862;10.672;2023-11-21T00:22:47;6.80;99.90
29577;DHT22;16509;53.862;10.672;2023-11-21T00:25:13;6.80;99.90
29577;DHT22;16509;53.862;10.672;2023-11-21T00:27:41;6.80;99.90
29577;DHT22;16509;53.862;10.672;2023-11-21T00:30:07;6.80;99.90
29577;DHT22;16509;53.862;10.672;2023-11-21T00:32:36;6.70;99.90
29577;DHT22;16509;53.862;10.672;2023-11-21T00:35:02;6.80;99.90
29577;DHT22;16509;53.862;10.672;2023-11-21T00:37:28;6.80;99.90
29577;DHT22;16509;53.862;10.672;2023-11-21T00:39:53;6.70;99.90
29577;DHT22;16509;53.862;10.672;2023-11-21T00:42:19;6.70;99.90
29577;DHT22;16509;53.862;10.672;2023-11-21T00:44:44;6.70;99.90
29577;DHT22;16509;53.862;10.672;2023-11-21T00:47:10;6.70;99.90
29577;DHT22;16509;53.862;10.672;2023-11-21T00:49:35;6.60;99.90
29577;DHT22;16509;53.862;10.672;2023-11-21T00:52:01;6.60;99.90
29577;DHT22;16509;53.862;10.672;2023-11-21T00:54:27;6.60;99.90
29577;DHT22;16509;53.862;10.672;2023-11-21T00:56:53;6.70;99.90
29577;DHT22;16509;53.862;10.672;2023-11-21T00:59:18;6.60;99.90
29577;DHT22;16509;53.862;10.672;2023-11-21T01:01:44;6.60;99.90
29577;DHT22;16509;53.862;10.672;2023-11-21T01:04:09;6.60;99.90
29577;DHT22;16509;53.862;10.672;2023-11-21T01:06:35;6.60;99.90
29577;DHT22;16509;53.862;10.672;2023-11-21T01:09:01;6.60;99.90
29577;DHT22;16509;53.862;10.672;2023-11-21T01:11:26;6.60;99.90
29577;DHT22;16509;53.862;10.672;2023-11-21T01:13:52;6.60;99.90
29577;DHT22;16509;53.862;10.672;2023-11-21T01:16:18;6.60;99.90
29577;DHT22;16509;53.862;10.672;2023-11-21T01:18:44;6.60;99.90
29577;DHT22;16509;53.862;10.672;2023-11-21T01:21:09;6.60;99.90
29577;DHT22;16509;53.862;10.672;2023-11-21T01:23:35;6.60;99.90
29577;DHT22;16509;53.862;10.672;2023-11-21T01:26:00;6.60;99.90
29577;DHT22;16509;53.862;10.672;2023-11-21T01:28:26;6.60;99.90
29577;DHT22;16509;53.862;10.672;2023-11-21T01:30:52;6.60;99.90
29577;DHT22;16509;53.862;10.672;2023-11-21T01:33:18;6.60;99.90
29577;DHT22;16509;53.862;10.672;2023-11-21T01:35:43;6.60;99.90
29577;DHT22;16509;53.862;10.672;2023-11-21T01:38:10;6.60;99.90
29577;DHT22;16509;53.862;10.672;2023-11-21T01:40:35;6.60;99.90
29577;DHT22;16509;53.862;10.672;2023-11-21T01:43:01;6.60;99.90
29577;DHT22;16509;53.862;10.672;2023-11-21T01:45:29;6.50;99.90
29577;DHT22;16509;53.862;10.672;2023-11-21T01:47:56;6.60;99.90
29577;DHT22;16509;53.862;10.672;2023-11-21T01:50:22;6.60;99.90
29577;DHT22;16509;53.862;10.672;2023-11-21T01:52:48;6.50;99.90
29577;DHT22;16509;53.862;10.672;2023-11-21T01:55:16;6.50;99.90
29577;DHT22;16509;53.862;10.672;2023-11-21T01:57:45;6.50;99.90
29577;DHT22;16509;53.862;10.672;2023-11-21T02:00:12;6.50;99.90
29577;DHT22;16509;53.862;10.672;2023-11-21T02:02:48;6.50;99.90
29577;DHT22;16509;53.862;10.672;2023-11-21T02:05:18;6.50;99.90
29577;DHT22;16509;53.862;10.672;2023-11-21T02:07:44;6.50;99.90
29577;DHT22;16509;53.862;10.672;2023-11-21T02:10:10;6.50;99.90
29577;DHT22;16509;53.862;10.672;2023-11-21T02:12:44;6.50;99.90
29577;DHT22;16509;53.862;10.672;2023-11-21T02:15:13;6.40;99.90
29577;DHT22;16509;53.862;10.672;2023-11-21T02:17:49;6.40;99.90
29577;DHT22;16509;53.862;10.672;2023-11-21T02:20:17;6.40;99.90
29577;DHT22;16509;53.862;10.672;2023-11-21T02:23:03;6.40;99.90
29577;DHT22;16509;53.862;10.672;2023-11-21T02:25:31;6.40;99.90
29577;DHT22;16509;53.862;10.672;2023-11-21T02:28:02;6.40;99.90
29577;DHT22;16509;53.862;10.672;2023-11-21T02:30:28;6.40;99.90
29577;DHT22;16509;53.862;10.672;2023-11-21T02:32:54;6.50;99.90
29577;DHT22;16509;53.862;10.672;2023-11-21T02:35:20;6.40;99.90
29577;DHT22;16509;53.862;10.672;2023-11-21T02:37:49;6.40;99.90
29577;DHT22;16509;53.862;10.672;2023-11-21T02:40:15;6.50;99.90
29577;DHT22;16509;53.862;10.672;2023-11-21T02:42:48;6.40;99.90
29577;DHT22;16509;53.862;10.672;2023-11-21T02:45:16;6.40;99.90
29577;DHT22;16509;53.862;10.672;2023-11-21T02:47:42;6.40;99.90
29577;DHT22;16509;53.862;10.672;2023-11-21T02:50:08;6.40;99.90
29577;DHT22;16509;53.862;10.672;2023-11-21T02:52:35;6.40;99.90
29577;DHT22;16509;53.862;10.672;2023-11-21T02:55:02;6.40;99.90
29577;DHT22;16509;53.862;10.672;2023-11-21T02:57:27;6.40;99.90
29577;DHT22;16509;53.862;10.672;2023-11-21T02:59:53;6.50;99.90
29577;DHT22;16509;53.862;10.672;2023-11-21T03:02:18;6.50;99.90
29577;DHT22;16509;53.862;10.672;2023-11-21T03:04:44;6.50;99.90
29577;DHT22;16509;53.862;10.672;2023-11-21T03:07:09;6.40;99.90
29577;DHT22;16509;53.862;10.672;2023-11-21T03:09:35;6.40;99.90
29577;DHT22;16509;53.862;10.672;2023-11-21T03:12:01;6.40;99.90
29577;DHT22;16509;53.862;10.672;2023-11-21T03:14:26;6.40;99.90
29577;DHT22;16509;53.862;10.672;2023-11-21T03:16:52;6.40;99.90
29577;DHT22;16509;53.862;10.672;2023-11-21T03:19:17;6.40;99.90
29577;DHT22;16509;53.862;10.672;2023-11-21T03:21:43;6.40;99.90
29577;DHT22;16509;53.862;10.672;2023-11-21T03:24:09;6.40;99.90
29577;DHT22;16509;53.862;10.672;2023-11-21T03:26:34;6.40;99.90
29577;DHT22;16509;53.862;10.672;2023-11-21T03:29:00;6.40;99.90
29577;DHT22;16509;53.862;10.672;2023-11-21T03:31:25;6.40;99.90
29577;DHT22;16509;53.862;10.672;2023-11-21T03:33:52;6.40;99.90
29577;DHT22;16509;53.862;10.672;2023-11-21T03:36:19;6.40;99.90
29577;DHT22;16509;53.862;10.672;2023-11-21T03:38:44;6.50;99.90
29577;DHT22;16509;53.862;10.672;2023-11-21T03:41:10;6.40;99.90
29577;DHT22;16509;53.862;10.672;2023-11-21T03:43:39;6.40;99.90
29577;DHT22;16509;53.862;10.672;2023-11-21T03:46:04;6.40;99.90
29577;DHT22;16509;53.862;10.672;2023-11-21T03:48:30;6.40;99.90
29577;DHT22;16509;53.862;10.672;2023-11-21T03:50:55;6.40;99.90
29577;DHT22;16509;53.862;10.672;2023-11-21T03:53:21;6.40;99.90
29577;DHT22;16509;53.862;10.672;2023-11-21T03:55:47;6.40;99.90
29577;DHT22;16509;53.862;10.672;2023-11-21T03:58:12;6.40;99.90
29577;DHT22;16509;53.862;10.672;2023-11-21T04:00:38;6.40;99.90
29577;DHT22;16509;53.862;10.672;2023-11-21T04:03:04;6.40;99.90
29577;DHT22;16509;53.862;10.672;2023-11-21T04:05:30;6.40;99.90
29577;DHT22;16509;53.862;10.672;2023-11-21T04:07:56;6.40;99.90
29577;DHT22;16509;53.862;10.672;2023-11-21T04:10:22;6.40;99.90
29577;DHT22;16509;53.862;10.672;2023-11-21T04:12:47;6.40;99.90
29577;DHT22;16509;53.862;10.672;2023-11-21T04:15:13;6.50;99.90
29577;DHT22;16509;53.862;10.672;2023-11-21T04:17:40;6.40;99.90
29577;DHT22;16509;53.862;10.672;2023-11-21T04:20:06;6.10;99.90
29577;DHT22;16509;53.862;10.672;2023-11-21T04:22:36;6.40;99.90
29577;DHT22;16509;53.862;10.672;2023-11-21T04:25:02;6.40;99.90
29577;DHT22;16509;53.862;10.672;2023-11-21T04:27:28;6.40;99.90
29577;DHT22;16509;53.862;10.672;2023-11-21T04:29:53;6.40;99.90
29577;DHT22;16509;53.862;10.672;2023-11-21T04:32:19;6.40;99.90
29577;DHT22;16509;53.862;10.672;2023-11-21T04:34:44;6.50;99.90
29577;DHT22;16509;53.862;10.672;2023-11-21T04:37:10;6.50;99.90
29577;DHT22;16509;53.862;10.672;2023-11-21T04:39:36;6.50;99.90
29577;DHT22;16509;53.862;10.672;2023-11-21T04:42:01;6.40;99.90
29577;DHT22;16509;53.862;10.672;2023-11-21T04:44:27;6.50;99.90
29577;DHT22;16509;53.862;10.672;2023-11-21T04:46:53;6.50;99.90
29577;DHT22;16509;53.862;10.672;2023-11-21T04:49:18;6.40;99.90
29577;DHT22;16509;53.862;10.672;2023-11-21T04:51:44;6.40;99.90
29577;DHT22;16509;53.862;10.672;2023-11-21T04:54:09;6.50;99.90
29577;DHT22;16509;53.862;10.672;2023-11-21T04:56:35;6.50;99.90
29577;DHT22;16509;53.862;10.672;2023-11-21T04:59:01;6.50;99.90
29577;DHT22;16509;53.862;10.672;2023-11-21T05:01:26;6.50;99.90
29577;DHT22;16509;53.862;10.672;2023-11-21T05:03:52;6.50;99.90
29577;DHT22;16509;53.862;10.672;2023-11-21T05:06:18;6.50;99.90
29577;DHT22;16509;53.862;10.672;2023-11-21T05:08:43;6.40;99.90
29577;DHT22;16509;53.862;10.672;2023-11-21T05:11:09;6.40;99.90
29577;DHT22;16509;53.862;10.672;2023-11-21T05:13:36;6.50;99.90
29577;DHT22;16509;53.862;10.672;2023-11-21T05:16:02;6.50;99.90
29577;DHT22;16509;53.862;10.672;2023-11-21T05:18:29;6.50;99.90
29577;DHT22;16509;53.862;10.672;2023-11-21T05:20:55;6.50;99.90
29577;DHT22;16509;53.862;10.672;2023-11-21T05:23:21;6.50;99.90
29577;DHT22;16509;53.862;10.672;2023-11-21T05:25:46;6.50;99.90
29577;DHT22;16509;53.862;10.672;2023-11-21T05:28:13;6.50;99.90
29577;DHT22;16509;53.862;10.672;2023-11-21T05:30:38;7.50;99.90
29577;DHT22;16509;53.862;10.672;2023-11-21T05:33:05;6.60;99.90
29577;DHT22;16509;53.862;10.672;2023-11-21T05:35:30;6.60;99.90
29577;DHT22;16509;53.862;10.672;2023-11-21T05:37:56;6.60;99.90
29577;DHT22;16509;53.862;10.672;2023-11-21T05:40:22;6.60;99.90
29577;DHT22;16509;53.862;10.672;2023-11-21T05:42:48;6.60;99.90
29577;DHT22;16509;53.862;10.672;2023-11-21T05:45:14;6.60;99.90
29577;DHT22;16509;53.862;10.672;2023-11-21T05:47:45;6.60;99.90
29577;DHT22;16509;53.862;10.672;2023-11-21T05:50:12;6.50;99.90
29577;DHT22;16509;53.862;10.672;2023-11-21T05:52:40;6.50;99.90
29577;DHT22;16509;53.862;10.672;2023-11-21T05:55:07;6.50;99.90
29577;DHT22;16509;53.862;10.672;2023-11-21T05:57:33;6.50;99.90
29577;DHT22;16509;53.862;10.672;2023-11-21T06:00:03;6.50;99.90
29577;DHT22;16509;53.862;10.672;2023-11-21T06:02:28;6.50;99.90
29577;DHT22;16509;53.862;10.672;2023-11-21T06:04:54;6.40;99.90
29577;DHT22;16509;53.862;10.672;2023-11-21T06:07:19;6.40;99.90
29577;DHT22;16509;53.862;10.672;2023-11-21T06:09:45;6.40;99.90
29577;DHT22;16509;53.862;10.672;2023-11-21T06:12:10;6.40;99.90
29577;DHT22;16509;53.862;10.672;2023-11-21T06:14:36;6.40;99.90
29577;DHT22;16509;53.862;10.672;2023-11-21T06:17:02;6.40;99.90
29577;DHT22;16509;53.862;10.672;2023-11-21T06:19:27;6.40;99.90
29577;DHT22;16509;53.862;10.672;2023-11-21T06:21:53;6.40;99.90
29577;DHT22;16509;53.862;10.672;2023-11-21T06:24:18;6.40;99.90
29577;DHT22;16509;53.862;10.672;2023-11-21T06:26:46;6.40;99.90
29577;DHT22;16509;53.862;10.672;2023-11-21T06:29:13;6.40;99.90
29577;DHT22;16509;53.862;10.672;2023-11-21T06:31:39;6.40;99.90
29577;DHT22;16509;53.862;10.672;2023-11-21T06:34:06;6.40;99.90
29577;DHT22;16509;53.862;10.672;2023-11-21T06:36:31;6.40;99.90
29577;DHT22;16509;53.862;10.672;2023-11-21T06:38:57;6.50;99.90
29577;DHT22;16509;53.862;10.672;2023-11-21T06:41:22;6.50;99.90
29577;DHT22;16509;53.862;10.672;2023-11-21T06:43:48;6.50;99.90
29577;DHT22;16509;53.862;10.672;2023-11-21T06:46:14;6.50;99.90
29577;DHT22;16509;53.862;10.672;2023-11-21T06:48:42;6.50;99.90
29577;DHT22;16509;53.862;10.672;2023-11-21T06:51:07;6.50;99.90
29577;DHT22;16509;53.862;10.672;2023-11-21T06:53:33;6.50;99.90
29577;DHT22;16509;53.862;10.672;2023-11-21T06:55:59;6.50;99.90
29577;DHT22;16509;53.862;10.672;2023-11-21T06:58:24;6.40;99.90
29577;DHT22;16509;53.862;10.672;2023-11-21T07:00:50;6.40;99.90
29577;DHT22;16509;53.862;10.672;2023-11-21T07:03:16;6.30;99.90
29577;DHT22;16509;53.862;10.672;2023-11-21T07:05:44;6.20;99.90
29577;DHT22;16509;53.862;10.672;2023-11-21T07:08:10;6.30;99.90
29577;DHT22;16509;53.862;10.672;2023-11-21T07:10:35;6.30;99.90
29577;DHT22;16509;53.862;10.672;2023-11-21T07:13:02;6.20;99.90
29577;DHT22;16509;53.862;10.672;2023-11-21T07:15:27;7.00;99.90
29577;DHT22;16509;53.862;10.672;2023-11-21T07:17:53;6.30;99.90
29577;DHT22;16509;53.862;10.672;2023-11-21T07:20:19;6.30;99.90
29577;DHT22;16509;53.862;10.672;2023-11-21T07:22:45;6.30;99.90
29577;DHT22;16509;53.862;10.672;2023-11-21T07:25:11;6.30;99.90
29577;DHT22;16509;53.862;10.672;2023-11-21T07:27:37;6.30;99.90
29577;DHT22;16509;53.862;10.672;2023-11-21T07:30:03;6.30;99.90
29577;DHT22;16509;53.862;10.672;2023-11-21T07:32:31;6.30;99.90
29577;DHT22;16509;53.862;10.672;2023-11-21T07:34:56;6.30;99.90
29577;DHT22;16509;53.862;10.672;2023-11-21T07:37:24;6.40;99.90
29577;DHT22;16509;53.862;10.672;2023-11-21T07:39:51;6.40;99.90
29577;DHT22;16509;53.862;10.672;2023-11-21T07:42:24;6.40;99.90
29577;DHT22;16509;53.862;10.672;2023-11-21T07:44:52;6.40;99.90
29577;DHT22;16509;53.862;10.672;2023-11-21T07:47:17;6.40;99.90
29577;DHT22;16509;53.862;10.672;2023-11-21T07:49:43;6.40;99.90
29577;DHT22;16509;53.862;10.672;2023-11-21T07:52:09;6.40;99.90
29577;DHT22;16509;53.862;10.672;2023-11-21T07:54:35;6.40;99.90
29577;DHT22;16509;53.862;10.672;2023-11-21T07:57:01;6.40;99.90
29577;DHT22;16509;53.862;10.672;2023-11-21T07:59:26;6.40;99.90
29577;DHT22;16509;53.862;10.672;2023-11-21T08:01:52;6.40;99.90
29577;DHT22;16509;53.862;10.672;2023-11-21T08:04:17;6.30;99.90
29577;DHT22;16509;53.862;10.672;2023-11-21T08:06:43;6.40;99.90
29577;DHT22;16509;53.862;10.672;2023-11-21T08:09:09;6.30;99.90
29577;DHT22;16509;53.862;10.672;2023-11-21T08:11:35;6.30;99.90
29577;DHT22;16509;53.862;10.672;2023-11-21T08:14:00;6.30;99.90
29577;DHT22;16509;53.862;10.672;2023-11-21T08:16:26;6.30;99.90
29577;DHT22;16509;53.862;10.672;2023-11-21T08:18:52;6.40;99.90
29577;DHT22;16509;53.862;10.672;2023-11-21T08:21:19;6.40;99.90
29577;DHT22;16509;53.862;10.672;2023-11-21T08:23:45;6.30;99.90
29577;DHT22;16509;53.862;10.672;2023-11-21T08:26:10;6.40;99.90
29577;DHT22;16509;53.862;10.672;2023-11-21T08:28:36;6.40;99.90
29577;DHT22;16509;53.862;10.672;2023-11-21T08:31:01;6.40;99.90
29577;DHT22;16509;53.862;10.672;2023-11-21T08:33:27;6.40;99.90
29577;DHT22;16509;53.862;10.672;2023-11-21T08:35:53;6.40;99.90
29577;DHT22;16509;53.862;10.672;2023-11-21T08:38:18;6.30;99.90
29577;DHT22;16509;53.862;10.672;2023-11-21T08:40:44;6.30;99.90
29577;DHT22;16509;53.862;10.672;2023-11-21T08:43:09;6.40;99.90
29577;DHT22;16509;53.862;10.672;2023-11-21T08:45:37;6.30;99.90
29577;DHT22;16509;53.862;10.672;2023-11-21T08:48:03;6.40;99.90
29577;DHT22;16509;53.862;10.672;2023-11-21T08:50:29;6.40;99.90
29577;DHT22;16509;53.862;10.672;2023-11-21T08:52:54;6.30;99.90
29577;DHT22;16509;53.862;10.672;2023-11-21T08:55:20;6.30;99.90
29577;DHT22;16509;53.862;10.672;2023-11-21T08:57:46;6.30;99.90
29577;DHT22;16509;53.862;10.672;2023-11-21T09:00:12;6.30;99.90
29577;DHT22;16509;53.862;10.672;2023-11-21T09:02:41;6.30;99.90
29577;DHT22;16509;53.862;10.672;2023-11-21T09:05:10;6.20;99.90
29577;DHT22;16509;53.862;10.672;2023-11-21T09:07:36;6.20;99.90
29577;DHT22;16509;53.862;10.672;2023-11-21T09:10:03;6.20;99.90
29577;DHT22;16509;53.862;10.672;2023-11-21T09:12:28;6.30;99.90
29577;DHT22;16509;53.862;10.672;2023-11-21T09:14:54;6.30;99.90
29577;DHT22;16509;53.862;10.672;2023-11-21T09:17:19;6.30;99.90
29577;DHT22;16509;53.862;10.672;2023-11-21T09:19:45;6.30;99.90
29577;DHT22;16509;53.862;10.672;2023-11-21T09:22:15;5.60;99.90
29577;DHT22;16509;53.862;10.672;2023-11-21T09:24:41;6.20;99.90
29577;DHT22;16509;53.862;10.672;2023-11-21T09:27:06;6.10;99.90
29577;DHT22;16509;53.862;10.672;2023-11-21T09:29:32;6.00;99.90
29577;DHT22;16509;53.862;10.672;2023-11-21T09:31:58;6.00;99.90
29577;DHT22;16509;53.862;10.672;2023-11-21T09:34:25;6.00;99.90
29577;DHT22;16509;53.862;10.672;2023-11-21T09:36:51;6.00;99.90
29577;DHT22;16509;53.862;10.672;2023-11-21T09:39:17;5.90;99.90
29577;DHT22;16509;53.862;10.672;2023-11-21T09:41:50;5.90;99.90
29577;DHT22;16509;53.862;10.672;2023-11-21T09:44:23;5.80;99.90
29577;DHT22;16509;53.862;10.672;2023-11-21T09:46:54;5.90;99.90
29577;DHT22;16509;53.862;10.672;2023-11-21T09:49:23;5.90;99.90
29577;DHT22;16509;53.862;10.672;2023-11-21T09:51:55;5.90;99.90
29577;DHT22;16509;53.862;10.672;2023-11-21T09:54:24;6.00;99.90
29577;DHT22;16509;53.862;10.672;2023-11-21T09:56:50;6.00;99.90
29577;DHT22;16509;53.862;10.672;2023-11-21T09:59:16;6.10;99.90
29577;DHT22;16509;53.862;10.672;2023-11-21T10:01:42;6.10;99.90
29577;DHT22;16509;53.862;10.672;2023-11-21T10:04:08;6.20;99.90
29577;DHT22;16509;53.862;10.672;2023-11-21T10:06:40;6.20;99.90
29577;DHT22;16509;53.862;10.672;2023-11-21T10:09:12;6.20;99.90
29577;DHT22;16509;53.862;10.672;2023-11-21T10:11:42;6.30;99.90
29577;DHT22;16509;53.862;10.672;2023-11-21T10:14:12;6.30;99.90
29577;DHT22;16509;53.862;10.672;2023-11-21T10:16:40;6.30;99.90
29577;DHT22;16509;53.862;10.672;2023-11-21T10:19:09;6.30;99.90
29577;DHT22;16509;53.862;10.672;2023-11-21T10:21:35;6.30;99.90
29577;DHT22;16509;53.862;10.672;2023-11-21T10:24:01;6.40;99.90
29577;DHT22;16509;53.862;10.672;2023-11-21T10:26:28;6.40;99.90
29577;DHT22;16509;53.862;10.672;2023-11-21T10:29:01;6.40;99.90
29577;DHT22;16509;53.862;10.672;2023-11-21T10:31:31;6.40;99.90
29577;DHT22;16509;53.862;10.672;2023-11-21T10:34:18;6.40;99.90
29577;DHT22;16509;53.862;10.672;2023-11-21T10:36:44;6.30;99.90
29577;DHT22;16509;53.862;10.672;2023-11-21T10:39:14;6.40;99.90
29577;DHT22;16509;53.862;10.672;2023-11-21T10:41:43;6.40;99.90
29577;DHT22;16509;53.862;10.672;2023-11-21T10:44:10;6.40;99.90
29577;DHT22;16509;53.862;10.672;2023-11-21T10:46:36;6.50;99.90
29577;DHT22;16509;53.862;10.672;2023-11-21T10:49:04;6.50;99.90
29577;DHT22;16509;53.862;10.672;2023-11-21T10:51:29;6.50;99.90
29577;DHT22;16509;53.862;10.672;2023-11-21T10:53:55;6.60;99.90
29577;DHT22;16509;53.862;10.672;2023-11-21T10:56:23;6.70;99.90
29577;DHT22;16509;53.862;10.672;2023-11-21T10:58:49;6.70;99.90
29577;DHT22;16509;53.862;10.672;2023-11-21T11:01:18;6.70;99.90
29577;DHT22;16509;53.862;10.672;2023-11-21T11:03:44;6.80;99.90
29577;DHT22;16509;53.862;10.672;2023-11-21T11:06:10;6.70;99.90
29577;DHT22;16509;53.862;10.672;2023-11-21T11:08:38;6.70;99.90
29577;DHT22;16509;53.862;10.672;2023-11-21T11:11:05;6.60;99.90
29577;DHT22;16509;53.862;10.672;2023-11-21T11:13:31;6.60;99.90
29577;DHT22;16509;53.862;10.672;2023-11-21T11:16:01;6.50;99.90
29577;DHT22;16509;53.862;10.672;2023-11-21T11:18:32;6.50;99.90
29577;DHT22;16509;53.862;10.672;2023-11-21T11:21:15;6.40;99.90
29577;DHT22;16509;53.862;10.672;2023-11-21T11:23:51;6.30;99.90
29577;DHT22;16509;53.862;10.672;2023-11-21T11:26:53;6.30;99.90
29577;DHT22;16509;53.862;10.672;2023-11-21T11:29:42;6.30;99.90
29577;DHT22;16509;53.862;10.672;2023-11-21T11:32:21;6.30;99.90
29577;DHT22;16509;53.862;10.672;2023-11-21T11:35:01;6.20;99.90
29577;DHT22;16509;53.862;10.672;2023-11-21T11:37:29;6.20;99.90
29577;DHT22;16509;53.862;10.672;2023-11-21T11:39:55;6.20;99.90
29577;DHT22;16509;53.862;10.672;2023-11-21T11:42:21;6.20;99.90
29577;DHT22;16509;53.862;10.672;2023-11-21T11:44:49;6.20;99.90
29577;DHT22;16509;53.862;10.672;2023-11-21T11:47:22;6.30;99.90
29577;DHT22;16509;53.862;10.672;2023-11-21T11:52:33;6.20;99.90
29577;DHT22;16509;53.862;10.672;2023-11-21T11:55:00;6.20;99.90
29577;DHT22;16509;53.862;10.672;2023-11-21T11:57:26;6.10;99.90
29577;DHT22;16509;53.862;10.672;2023-11-21T12:00:11;6.10;99.90
29577;DHT22;16509;53.862;10.672;2023-11-21T12:02:48;6.00;99.90
29577;DHT22;16509;53.862;10.672;2023-11-21T12:05:21;6.00;99.90
29577;DHT22;16509;53.862;10.672;2023-11-21T12:07:53;6.10;99.90
29577;DHT22;16509;53.862;10.672;2023-11-21T12:10:20;6.00;99.90
29577;DHT22;16509;53.862;10.672;2023-11-21T12:13:07;6.10;99.90
29577;DHT22;16509;53.862;10.672;2023-11-21T12:15:34;6.10;99.90
29577;DHT22;16509;53.862;10.672;2023-11-21T12:18:00;6.10;99.90
29577;DHT22;16509;53.862;10.672;2023-11-21T12:20:27;6.20;99.90
29577;DHT22;16509;53.862;10.672;2023-11-21T12:22:55;6.20;99.90
29577;DHT22;16509;53.862;10.672;2023-11-21T12:25:23;6.20;99.90
29577;DHT22;16509;53.862;10.672;2023-11-21T12:27:50;6.20;99.90
29577;DHT22;16509;53.862;10.672;2023-11-21T12:30:18;6.20;99.90
29577;DHT22;16509;53.862;10.672;2023-11-21T12:32:50;6.30;99.90
29577;DHT22;16509;53.862;10.672;2023-11-21T12:35:20;6.30;99.90
29577;DHT22;16509;53.862;10.672;2023-11-21T12:37:47;6.30;99.90
29577;DHT22;16509;53.862;10.672;2023-11-21T12:40:14;6.40;99.90
29577;DHT22;16509;53.862;10.672;2023-11-21T12:42:47;6.40;99.90
29577;DHT22;16509;53.862;10.672;2023-11-21T12:50:23;6.90;99.90
29577;DHT22;16509;53.862;10.672;2023-11-21T12:52:51;6.10;99.90
29577;DHT22;16509;53.862;10.672;2023-11-21T12:55:18;6.10;99.90
29577;DHT22;16509;53.862;10.672;2023-11-21T12:57:48;6.00;99.90
29577;DHT22;16509;53.862;10.672;2023-11-21T13:00:17;6.00;99.90
29577;DHT22;16509;53.862;10.672;2023-11-21T13:02:56;5.90;99.90
29577;DHT22;16509;53.862;10.672;2023-11-21T13:05:32;5.80;99.90
29577;DHT22;16509;53.862;10.672;2023-11-21T13:08:01;5.70;99.90
29577;DHT22;16509;53.862;10.672;2023-11-21T13:10:30;5.60;99.90
29577;DHT22;16509;53.862;10.672;2023-11-21T13:13:00;5.50;99.90
29577;DHT22;16509;53.862;10.672;2023-11-21T13:15:27;5.50;99.90
29577;DHT22;16509;53.862;10.672;2023-11-21T13:17:53;5.50;99.90
29577;DHT22;16509;53.862;10.672;2023-11-21T13:20:19;5.50;99.90
29577;DHT22;16509;53.862;10.672;2023-11-21T13:23:09;5.50;99.90
29577;DHT22;16509;53.862;10.672;2023-11-21T13:25:37;5.50;99.90
29577;DHT22;16509;53.862;10.672;2023-11-21T13:28:04;5.40;99.90
29577;DHT22;16509;53.862;10.672;2023-11-21T13:30:30;5.40;99.90
29577;DHT22;16509;53.862;10.672;2023-11-21T13:33:05;5.50;99.90
29577;DHT22;16509;53.862;10.672;2023-11-21T13:35:37;5.50;99.90
29577;DHT22;16509;53.862;10.672;2023-11-21T13:38:17;5.50;99.90
29577;DHT22;16509;53.862;10.672;2023-11-21T13:40:51;5.50;99.90
29577;DHT22;16509;53.862;10.672;2023-11-21T13:43:22;5.60;99.90
29577;DHT22;16509;53.862;10.672;2023-11-21T13:45:49;5.50;99.90
29577;DHT22;16509;53.862;10.672;2023-11-21T13:48:25;5.60;99.90
29577;DHT22;16509;53.862;10.672;2023-11-21T13:51:00;5.60;99.90
29577;DHT22;16509;53.862;10.672;2023-11-21T13:53:36;5.60;99.90
29577;DHT22;16509;53.862;10.672;2023-11-21T13:56:03;5.50;99.90
29577;DHT22;16509;53.862;10.672;2023-11-21T13:58:28;5.60;99.90
29577;DHT22;16509;53.862;10.672;2023-11-21T14:01:13;5.40;99.90
29577;DHT22;16509;53.862;10.672;2023-11-21T14:03:58;5.40;99.90
29577;DHT22;16509;53.862;10.672;2023-11-21T14:06:34;5.20;99.90
29577;DHT22;16509;53.862;10.672;2023-11-21T14:09:05;5.10;99.90
29577;DHT22;16509;53.862;10.672;2023-11-21T14:11:31;5.10;99.90
29577;DHT22;16509;53.862;10.672;2023-11-21T14:13:57;5.00;99.90
29577;DHT22;16509;53.862;10.672;2023-11-21T14:16:24;5.00;99.90
29577;DHT22;16509;53.862;10.672;2023-11-21T14:18:50;5.00;99.90
29577;DHT22;16509;53.862;10.672;2023-11-21T14:21:21;5.00;99.90
29577;DHT22;16509;53.862;10.672;2023-11-21T14:23:47;5.00;99.90
29577;DHT22;16509;53.862;10.672;2023-11-21T14:26:13;4.90;99.90
29577;DHT22;16509;53.862;10.672;2023-11-21T14:28:40;4.90;99.90
29577;DHT22;16509;53.862;10.672;2023-11-21T14:31:07;4.80;99.90
29577;DHT22;16509;53.862;10.672;2023-11-21T14:33:33;4.80;99.90
29577;DHT22;16509;53.862;10.672;2023-11-21T14:35:58;4.90;99.90
29577;DHT22;16509;53.862;10.672;2023-11-21T14:38:24;4.80;99.90
29577;DHT22;16509;53.862;10.672;2023-11-21T14:40:49;4.90;99.90
29577;DHT22;16509;53.862;10.672;2023-11-21T14:43:15;4.90;99.90
29577;DHT22;16509;53.862;10.672;2023-11-21T14:45:42;4.90;99.90
29577;DHT22;16509;53.862;10.672;2023-11-21T14:48:07;4.90;99.90
29577;DHT22;16509;53.862;10.672;2023-11-21T14:50:42;5.00;99.90
29577;DHT22;16509;53.862;10.672;2023-11-21T14:53:11;5.00;99.90
29577;DHT22;16509;53.862;10.672;2023-11-21T14:55:39;5.00;99.90
29577;DHT22;16509;53.862;10.672;2023-11-21T14:58:17;5.00;99.90
29577;DHT22;16509;53.862;10.672;2023-11-21T15:01:01;5.10;99.90
29577;DHT22;16509;53.862;10.672;2023-11-21T15:03:28;5.10;99.90
29577;DHT22;16509;53.862;10.672;2023-11-21T15:05:57;5.00;99.90
29577;DHT22;16509;53.862;10.672;2023-11-21T15:08:23;4.90;99.90
29577;DHT22;16509;53.862;10.672;2023-11-21T15:10:55;4.80;99.90
29577;DHT22;16509;53.862;10.672;2023-11-21T15:13:21;4.80;99.90
29577;DHT22;16509;53.862;10.672;2023-11-21T15:15:48;4.80;99.90
29577;DHT22;16509;53.862;10.672;2023-11-21T15:18:14;4.70;99.90
29577;DHT22;16509;53.862;10.672;2023-11-21T15:20:40;4.80;99.90
29577;DHT22;16509;53.862;10.672;2023-11-21T15:23:06;4.70;99.90
29577;DHT22;16509;53.862;10.672;2023-11-21T15:25:32;4.70;99.90
29577;DHT22;16509;53.862;10.672;2023-11-21T15:27:58;4.70;99.90
29577;DHT22;16509;53.862;10.672;2023-11-21T15:30:23;4.70;99.90
29577;DHT22;16509;53.862;10.672;2023-11-21T15:32:51;4.70;99.90
29577;DHT22;16509;53.862;10.672;2023-11-21T15:35:18;4.80;99.90
29577;DHT22;16509;53.862;10.672;2023-11-21T15:37:44;4.70;99.90
29577;DHT22;16509;53.862;10.672;2023-11-21T15:40:10;4.70;99.90